Canto do Buriti, Brazil
Current Conditions -  °F | °C
As of 11:00 AM on Thursday 27 Nov 2014 (Local Time) from SBPL Reporting Station
Clear Clear  
Wind Chill: 90°   Ceiling: Unl
Heat Index: 91°   Visibility: 6mi
Dew Point: 64°   Wind: 16mph
Humidity: 43%   Direction: 70°ENE
Pressure: 29.94"   Gusts: NA
Location:  8.1°S, 42.97°W
Report Text: SBPL 271400Z 07014KT CAVOK 32/18 Q1014
Loading
Personal Weather Stations






























Interactive Weather Map New forecast layout! Learn more

10-Day Weather Forecast

Advertisements
Track Severe Weather on mobile